ESOK

Karlstad Airport

Karlstad, Sweden
METAR ESOK 211520Z AUTO 26010KT 9999 NCD 16/M02 Q1012
Observed Flight Rules
Apr-21 @ 15:20 UTC (13 minutes ago) Visual Flight Rules
Wind Visibility Clouds
260° at 10 knots 10,000+ meters
  • Clear skies
Temperatures Readings
Current 16°C / 61°F
Dewpoint -2°C / 28°F
Humidity 29%
Altimeter 29.88" Hg
Pressure 1012 hPa
Elevation 107
METAR ESOK 211520Z AUTO 26010KT 9999 NCD 16/M02 Q1012
Observed Flight Rules
Apr-21 @ 15:20 UTC
(13 minutes ago)
VFR
Wind Visibility
260° at 10 knots 10,000+ meters
Clouds
  • Clear skies
Temperature Dewpoint
16°C / 61°F -2°C / 28°F
Humidity Altimeter Pressure
29% 29.88" Hg 1012 hPa